Le Grand, Iowa
Current Conditions -  °F | °C
As of 2:11 PM on Thursday 23 Oct 2014 (Local Time) from KMIW Reporting Station
Broken Clouds Broken Clouds  
Wind Chill: 61°   Ceiling: 2400
Heat Index: 61°   Visibility: 9mi
Dew Point: 57°   Wind: 7mph
Humidity: 87%   Direction: 210°SSW
Pressure: 30.02"   Gusts: NA
Location:  42.01°N, 92.78°W
Report Text: KMIW 231911Z AUTO 21006KT 9SM FEW012 SCT016 BKN024 16/14 A3002 RMK AO2 T01610139
Loading
Personal Weather Stations






























Interactive Weather Map
Tropical Storm Tracking
New forecast layout! Learn more

10-Day Weather Forecast

Advertisements
Track Severe Weather on mobile